Altoona, Wisconsin
Current Conditions -  °F | °C
As of 11:56 PM on Saturday 22 Nov 2014 (Local Time) from KEAU Reporting Station
Moderate Fog Moderate Fog  
Wind Chill: 33°   Ceiling: 200
Heat Index: 37°   Visibility: 0.25mi
Dew Point: 37°   Wind: 5mph
Humidity: 100%   Direction: 120°ESE
Pressure: 29.58"   Gusts: NA
Location:  44.81°N, 91.43°W
Report Text: KEAU 230556Z AUTO 12004KT 1/4SM FG VV002 03/03 A2958 RMK AO2 SLP025 T00280028 10028 20017 400280000 56021
Loading
Personal Weather Stations






























Interactive Weather Map New forecast layout! Learn more

10-Day Weather Forecast

Advertisements
Track Severe Weather on mobile